Pagrindinis puslapis
METAR-TAF:

METAR-TAF

Oro uostai :

Plainview, Teksasas, Jungtinės Amerikos Valstijos

platuma: 34-10-05N, ilguma: 101-43-02W, Aukštis: 1028 m

Dabartinis oras

Ataskaita buvo paskelbta 37 minutes, ne 08:10 UTC
Vėjas 4 kt iš Rytų/Pietryčių
Temperatūra 14°C
Drėgmė 51%
Slėgis 1022 hPa
Matomumas: 16.1 km
Giedras dangus

METAR: KPVW 020810Z AUTO 12004KT 10SM CLR 14/04 A3018 RMK AO2 T01360040

Laikas: 03:47 (08:47 UTC)

Prognozė

Ataskaita buvo paskelbta 3 valandos ir 27 minutes, ne 05:20 UTC
Prognozė galioja nuo 02 metu 06 UTC su 03 metu 06 UTC
Vėjas 5 kt iš Pietryčių
Matomumas: 10 km
Giedras dangus

TAF: KPVW 020520Z 0206/0306 13005KT P6SM SKC

Orai ataskaitas ir orų prognozės (METAR, TAF).

turimą stotys yra geltonos ir raudonos taškus žemėlapyje.

Perkelti pele per norėdami pamatyti stoties vardą.

Tada spustelėkite, norėdami matyti oro stebėjimo ir prognozės.

Norėdami pakeisti žemėlapį: spustelėkite ant žalios mygtukų su juodo kryžiaus žemyn,; žalią mygtuką su brūkšneliu, jei norite nutolinti; arba žalių rodyklių gretimoms žemėlapius.


METAR-TAF: